Time;durP1;ratioP1;P1;durP2;ratioP2;P2;SDS_P1;SDS_P2;PMS_P1;PMS_P2;Temp;Humidity;BMP_temperature;BMP_pressure;BME280_temperature;BME280_humidity;BME280_pressure;Samples;Min_cycle;Max_cycle;Signal;HPM_P1;HPM_P2
2023/09/12 00:00:47;;;;;;;18.45;12.15;;;19.20;1.00;;;;;;10530031;28;20230;-78
2023/09/12 00:06:07;;;;;;;19.08;11.93;;;19.00;1.00;;;;;;10554176;28;20186;-78
2023/09/12 00:21:50;;;;;;;18.48;12.77;;;18.90;1.00;;;;;;10514022;28;20740;-78
2023/09/12 00:27:11;;;;;;;14.65;12.50;;;18.90;1.00;;;;;;10485629;28;20199;-78
2023/09/12 00:45:00;;;;;;;19.88;13.63;;;18.70;1.00;;;;;;10510069;28;20582;-78
2023/09/12 00:50:25;;;;;;;20.58;13.20;;;18.70;1.00;;;;;;10415828;28;20203;-78
2023/09/12 00:55:56;;;;;;;21.25;14.57;;;18.80;11.40;;;;;;10429400;28;20306;-78
2023/09/12 01:01:18;;;;;;;18.75;13.45;;;18.70;1.00;;;;;;10459140;28;20228;-78
2023/09/12 01:06:40;;;;;;;23.33;13.68;;;18.70;99.90;;;;;;10471174;28;20188;-79
2023/09/12 01:12:04;;;;;;;21.77;13.30;;;18.70;1.00;;;;;;10456387;28;20363;-78
2023/09/12 01:17:26;;;;;;;16.67;13.10;;;18.60;1.00;;;;;;10415101;28;20404;-79
2023/09/12 01:23:00;;;;;;;18.17;12.70;;;18.50;1.00;;;;;;10447668;28;20220;-78
2023/09/12 01:28:24;;;;;;;18.65;13.23;;;18.50;1.00;;;;;;10470862;28;20414;-78
2023/09/12 01:33:45;;;;;;;18.35;12.55;;;18.40;1.00;;;;;;10460388;28;20195;-78
2023/09/12 01:39:07;;;;;;;16.13;12.23;;;18.40;1.00;;;;;;10442745;28;20212;-78
2023/09/12 01:44:29;;;;;;;19.25;12.40;;;18.30;1.00;;;;;;10458819;28;20236;-78
2023/09/12 01:49:54;;;;;;;16.00;13.73;;;18.30;99.90;;;;;;10454894;28;20189;-78
2023/09/12 01:55:16;;;;;;;20.35;16.42;;;18.30;1.00;;;;;;10448456;28;20188;-78
2023/09/12 02:00:39;;;;;;;22.13;15.38;;;18.20;1.00;;;;;;10468332;28;20530;-79
2023/09/12 02:06:00;;;;;;;25.27;16.50;;;18.20;1.00;;;;;;10440575;28;20188;-78
2023/09/12 02:11:21;;;;;;;24.00;17.08;;;18.10;1.00;;;;;;10440572;28;20199;-78
2023/09/12 02:16:42;;;;;;;28.48;17.67;;;18.20;99.90;;;;;;10453841;28;20219;-79
2023/09/12 02:22:04;;;;;;;30.38;16.73;;;18.00;1.00;;;;;;10426039;28;20274;-78
2023/09/12 02:27:25;;;;;;;32.38;17.17;;;18.10;1.00;;;;;;10425365;28;20200;-78
2023/09/12 02:37:33;;;;;;;47.50;23.88;;;18.00;99.90;;;;;;10555834;27;20901;-78
2023/09/12 02:57:43;;;;;;;25.55;17.17;;;17.70;1.00;;;;;;10494835;28;20578;-78
2023/09/12 03:08:00;;;;;;;22.90;16.48;;;17.60;99.90;;;;;;10555931;27;20555;-78
2023/09/12 03:13:23;;;;;;;22.85;16.60;;;17.60;1.00;;;;;;10539621;28;20202;-79
2023/09/12 03:18:44;;;;;;;24.60;14.60;;;17.60;1.00;;;;;;10513161;28;20202;-79
2023/09/12 03:24:05;;;;;;;19.52;14.73;;;17.60;1.00;;;;;;10511755;28;20318;-79
2023/09/12 03:29:27;;;;;;;23.83;14.50;;;17.50;1.00;;;;;;10508220;28;20203;-79
2023/09/12 03:39:35;;;;;;;21.52;14.27;;;17.50;1.00;;;;;;10555904;27;20568;-78
2023/09/12 03:44:56;;;;;;;19.75;14.90;;;17.40;99.90;;;;;;10545144;28;20274;-78
2023/09/12 03:50:17;;;;;;;18.70;14.65;;;17.30;99.90;;;;;;10544440;28;20392;-78
2023/09/12 03:55:39;;;;;;;20.77;13.38;;;17.30;1.00;;;;;;10554179;28;20222;-79
2023/09/12 04:01:00;;;;;;;18.17;13.15;;;17.30;32.90;;;;;;10535791;28;20199;-79
2023/09/12 04:11:37;;;;;;;16.55;11.65;;;17.40;54.30;;;;;;10514097;28;20953;-79
2023/09/12 04:17:04;;;;;;;19.08;13.23;;;17.30;1.00;;;;;;10510491;28;20512;-78
2023/09/12 04:22:28;;;;;;;16.50;12.43;;;17.20;1.00;;;;;;10458128;28;20208;-79
2023/09/12 04:34:18;;;;;;;20.27;13.77;;;17.10;69.90;;;;;;10501179;28;20582;-79
2023/09/12 04:45:21;;;;;;;18.80;13.05;;;17.10;1.00;;;;;;10630938;27;20561;-78
2023/09/12 04:50:42;;;;;;;22.23;14.57;;;17.20;1.00;;;;;;10558721;28;20202;-78
2023/09/12 04:56:06;;;;;;;16.55;12.95;;;17.30;99.90;;;;;;10554452;28;20200;-78
2023/09/12 05:01:27;;;;;;;16.50;11.50;;;17.30;99.90;;;;;;10553939;28;20264;-79
2023/09/12 05:06:49;;;;;;;18.45;12.57;;;17.40;6.00;;;;;;10542019;28;20393;-79
2023/09/12 05:12:10;;;;;;;15.82;13.27;;;17.50;1.00;;;;;;10553501;28;20497;-79
2023/09/12 05:17:31;;;;;;;22.17;12.85;;;17.60;99.90;;;;;;10559521;28;20199;-79
2023/09/12 05:22:52;;;;;;;16.45;12.25;;;17.70;1.00;;;;;;10606613;27;20217;-78
2023/09/12 05:28:16;;;;;;;25.23;15.55;;;17.70;54.30;;;;;;10594885;28;20201;-79
2023/09/12 05:33:41;;;;;;;22.67;14.90;;;17.90;1.00;;;;;;10567228;28;20619;-79
2023/09/12 05:39:03;;;;;;;20.10;13.80;;;18.00;99.90;;;;;;10552566;28;20352;-78
2023/09/12 05:44:24;;;;;;;16.70;13.32;;;18.20;1.00;;;;;;10590806;28;20284;-78
2023/09/12 05:49:46;;;;;;;22.95;14.65;;;18.40;1.00;;;;;;10565587;28;20194;-78
2023/09/12 05:55:07;;;;;;;19.77;14.05;;;18.60;1.00;;;;;;10540193;28;20191;-79
2023/09/12 06:00:29;;;;;;;17.85;14.35;;;18.60;1.00;;;;;;10524711;28;20447;-78
2023/09/12 06:05:50;;;;;;;16.52;14.07;;;18.80;1.00;;;;;;10509830;28;20195;-78
2023/09/12 06:11:11;;;;;;;16.15;13.90;;;19.00;1.00;;;;;;10577422;27;20198;-78
2023/09/12 06:16:32;;;;;;;18.05;14.40;;;19.20;1.00;;;;;;10515523;28;20269;-78
2023/09/12 06:21:55;;;;;;;18.27;15.35;;;19.50;1.00;;;;;;10564836;28;20293;-78
2023/09/12 06:27:19;;;;;;;24.00;15.95;;;19.60;1.00;;;;;;10539557;28;20493;-78
2023/09/12 06:32:40;;;;;;;22.52;16.02;;;19.90;1.00;;;;;;10522573;28;20187;-79
2023/09/12 06:38:02;;;;;;;25.08;14.10;;;20.20;99.90;;;;;;10522262;28;20191;-78
2023/09/12 06:43:23;;;;;;;17.20;10.90;;;21.30;1.00;;;;;;10558941;28;20637;-79
2023/09/12 06:48:50;;;;;;;16.02;10.45;;;22.80;1.00;;;;;;10564846;28;20190;-79
2023/09/12 06:54:12;;;;;;;11.52;8.50;;;24.20;1.00;;;;;;10561841;28;20419;-78
2023/09/12 06:59:33;;;;;;;12.13;8.88;;;25.30;1.00;;;;;;10524349;28;20278;-79
2023/09/12 07:04:55;;;;;;;9.43;8.35;;;26.40;1.00;;;;;;10547621;28;20598;-79
2023/09/12 07:10:17;;;;;;;13.05;8.15;;;;;;;;;;10562703;28;20221;-79
2023/09/12 07:15:43;;;;;;;10.73;9.10;;;;;;;;;;10548879;28;20230;-79
2023/09/12 07:21:06;;;;;;;8.80;7.50;;;;;;;;;;10444153;28;20493;-79
2023/09/12 07:26:27;;;;;;;8.13;7.32;;;29.20;99.90;;;;;;10477344;28;20230;-81
2023/09/12 07:31:53;;;;;;;11.00;7.65;;;29.70;99.90;;;;;;10466949;28;20199;-79
2023/09/12 07:37:14;;;;;;;8.07;7.28;;;30.20;99.90;;;;;;10470097;28;20283;-84
2023/09/12 07:42:36;;;;;;;10.88;7.78;;;30.60;99.90;;;;;;10458368;28;20334;-84
2023/09/12 07:47:57;;;;;;;11.73;7.63;;;31.00;99.90;;;;;;10471847;28;20204;-81
2023/09/12 07:53:18;;;;;;;10.70;7.88;;;31.40;99.90;;;;;;10473504;28;20219;-79
2023/09/12 07:58:39;;;;;;;13.32;7.65;;;31.70;99.90;;;;;;10473386;28;20195;-79
2023/09/12 08:04:00;;;;;;;9.25;7.47;;;32.00;99.90;;;;;;10455350;28;20234;-83
2023/09/12 08:09:22;;;;;;;15.98;7.95;;;32.50;99.90;;;;;;10444691;28;20490;-82
2023/09/12 08:14:44;;;;;;;9.35;6.53;;;32.90;99.90;;;;;;10471614;28;20227;-81
2023/09/12 08:20:09;;;;;;;9.68;6.63;;;33.40;99.90;;;;;;10446291;28;20520;-82
2023/09/12 08:25:30;;;;;;;16.92;8.73;;;33.50;99.90;;;;;;10462597;28;20200;-83
2023/09/12 08:30:52;;;;;;;8.70;7.50;;;34.00;99.90;;;;;;10453701;28;20230;-83
2023/09/12 08:36:13;;;;;;;10.05;7.40;;;34.20;99.90;;;;;;10463889;28;20276;-85
2023/09/12 08:41:34;;;;;;;10.10;7.43;;;34.70;99.90;;;;;;10429033;28;20239;-84
2023/09/12 08:46:56;;;;;;;8.27;7.40;;;34.60;99.90;;;;;;10430242;28;20502;-80
2023/09/12 08:52:17;;;;;;;7.75;6.38;;;34.60;99.90;;;;;;10441595;28;20227;-80
2023/09/12 08:57:42;;;;;;;6.78;6.13;;;34.90;99.90;;;;;;10470690;28;20206;-82
2023/09/12 09:03:04;;;;;;;10.30;6.85;;;35.30;99.90;;;;;;10466623;28;20219;-81
2023/09/12 09:08:26;;;;;;;8.93;6.82;;;35.80;99.90;;;;;;10456151;28;20203;-80
2023/09/12 09:13:48;;;;;;;12.25;7.25;;;36.10;99.90;;;;;;10497377;28;20251;-81
2023/09/12 09:19:11;;;;;;;11.68;8.13;;;36.20;99.90;;;;;;10451363;28;20206;-81
2023/09/12 09:24:32;;;;;;;10.00;7.45;;;36.20;99.90;;;;;;10429540;28;20205;-85
2023/09/12 09:29:54;;;;;;;8.50;7.07;;;36.20;99.90;;;;;;10441083;28;20208;-86
2023/09/12 09:35:15;;;;;;;8.80;6.38;;;36.50;99.90;;;;;;10447458;28;20224;-82
2023/09/12 09:40:37;;;;;;;7.03;6.07;;;36.80;99.90;;;;;;10450139;28;20218;-84
2023/09/12 09:45:58;;;;;;;9.20;6.80;;;36.90;99.90;;;;;;10450853;28;20197;-85
2023/09/12 09:51:23;;;;;;;8.20;6.68;;;37.20;99.90;;;;;;10457570;28;20243;-85
2023/09/12 09:56:55;;;;;;;8.43;6.72;;;37.20;99.90;;;;;;10456512;28;20204;-81
2023/09/12 10:02:22;;;;;;;11.68;7.50;;;37.30;99.90;;;;;;10463260;28;20230;-81
2023/09/12 10:07:48;;;;;;;11.70;10.50;;;37.50;99.80;;;;;;10471624;28;20489;-82
2023/09/12 10:13:10;;;;;;;13.40;10.15;;;37.90;98.00;;;;;;10478000;28;20232;-88
2023/09/12 10:18:39;;;;;;;20.88;10.45;;;37.70;96.00;;;;;;10462304;28;20196;-82
2023/09/12 10:24:03;;;;;;;9.35;6.85;;;37.70;94.10;;;;;;10471572;28;20772;-87
2023/09/12 10:29:24;;;;;;;9.05;6.00;;;37.70;93.60;;;;;;10434849;28;20235;-81
2023/09/12 10:34:48;;;;;;;14.60;6.47;;;37.80;91.90;;;;;;10408848;28;20307;-85
2023/09/12 10:40:11;;;;;;;8.50;5.63;;;37.90;91.50;;;;;;10434034;28;20286;-82
2023/09/12 10:45:33;;;;;;;28.27;7.45;;;37.80;90.60;;;;;;10420619;28;20212;-83
2023/09/12 10:50:58;;;;;;;13.05;7.10;;;38.00;90.00;;;;;;10424187;28;20211;-84
2023/09/12 10:56:20;;;;;;;12.25;8.50;;;38.00;87.80;;;;;;10449738;28;20208;-81
2023/09/12 11:01:46;;;;;;;13.13;8.35;;;37.50;85.10;;;;;;10432620;28;20212;-87
2023/09/12 11:07:31;;;;;;;9.98;6.40;;;37.60;85.10;;;;;;10470946;28;20238;-83
2023/09/12 11:12:54;;;;;;;8.30;5.15;;;38.00;83.90;;;;;;10474183;28;20464;-85
2023/09/12 11:18:16;;;;;;;13.00;6.43;;;38.20;82.90;;;;;;10445814;28;20204;-83
2023/09/12 11:23:39;;;;;;;10.25;6.80;;;38.30;80.10;;;;;;10427388;28;20299;-87
2023/09/12 11:29:16;;;;;;;7.38;5.95;;;38.40;79.00;;;;;;10443789;28;20192;-87
2023/09/12 11:34:40;;;;;;;9.93;6.88;;;38.00;77.90;;;;;;10455858;28;20242;-86
2023/09/12 11:40:02;;;;;;;11.75;5.95;;;38.20;77.80;;;;;;10466869;28;20212;-86
2023/09/12 11:45:23;;;;;;;13.75;6.43;;;38.20;75.60;;;;;;10469410;28;20381;-84
2023/09/12 11:50:53;;;;;;;10.48;5.95;;;37.80;73.20;;;;;;10457482;28;20206;-82
2023/09/12 11:56:14;;;;;;;12.48;6.38;;;37.70;94.50;;;;;;10464823;28;20219;-86
2023/09/12 12:01:35;;;;;;;9.05;6.53;;;37.70;73.00;;;;;;10463071;28;20551;-83
2023/09/12 12:06:56;;;;;;;18.98;7.13;;;37.40;70.60;;;;;;10468940;28;20227;-82
2023/09/12 12:12:18;;;;;;;11.35;7.00;;;37.10;70.40;;;;;;10477696;28;20239;-83
2023/09/12 12:17:42;;;;;;;14.48;6.72;;;36.90;68.60;;;;;;10430251;28;20394;-82
2023/09/12 12:23:04;;;;;;;8.15;6.35;;;36.90;68.50;;;;;;10410545;28;20242;-83
2023/09/12 12:28:25;;;;;;;7.15;5.80;;;36.80;67.80;;;;;;10482557;28;20486;-82
2023/09/12 12:33:49;;;;;;;15.88;6.90;;;36.80;67.10;;;;;;10472085;28;20251;-84
2023/09/12 12:39:14;;;;;;;8.73;6.53;;;36.60;67.50;;;;;;10455941;28;20274;-83
2023/09/12 12:44:40;;;;;;;15.65;7.70;;;36.50;66.90;;;;;;10466642;28;20266;-82
2023/09/12 12:50:01;;;;;;;8.38;5.78;;;36.40;66.10;;;;;;10436001;28;20219;-84
2023/09/12 12:55:25;;;;;;;10.85;6.90;;;36.10;65.50;;;;;;10471343;28;20289;-82
2023/09/12 13:00:46;;;;;;;9.68;7.82;;;35.50;63.90;;;;;;10456347;28;20322;-82
2023/09/12 13:06:13;;;;;;;8.57;6.97;;;35.00;65.40;;;;;;10478014;28;20379;-83
2023/09/12 13:11:34;;;;;;;9.15;6.90;;;35.10;66.80;;;;;;10487357;28;20253;-82
2023/09/12 13:16:56;;;;;;;7.15;6.15;;;35.40;66.90;;;;;;10472958;28;20575;-87
2023/09/12 13:22:18;;;;;;;8.85;6.05;;;34.80;67.20;;;;;;10464810;28;20208;-82
2023/09/12 13:27:39;;;;;;;10.35;7.03;;;34.20;65.80;;;;;;10496490;28;20226;-91
2023/09/12 13:33:01;;;;;;;10.35;6.72;;;33.80;65.10;;;;;;10460960;28;20324;-81
2023/09/12 13:38:23;;;;;;;7.13;6.45;;;33.80;63.90;;;;;;10473243;28;20282;-83
2023/09/12 13:43:47;;;;;;;9.25;6.10;;;33.90;64.60;;;;;;10478654;28;20227;-83
2023/09/12 13:49:08;;;;;;;11.05;7.85;;;33.50;64.50;;;;;;10464528;28;20203;-83
2023/09/12 13:54:29;;;;;;;12.10;7.30;;;33.40;65.70;;;;;;10448906;28;20244;-83
2023/09/12 13:59:50;;;;;;;12.55;11.35;;;33.20;64.60;;;;;;10510088;28;20239;-83
2023/09/12 14:05:12;;;;;;;12.05;7.32;;;32.90;64.70;;;;;;10505913;28;20456;-91
2023/09/12 14:16:00;;;;;;;10.63;7.20;;;32.40;62.80;;;;;;10512388;28;20541;-88
2023/09/12 14:21:22;;;;;;;11.35;7.13;;;32.10;64.50;;;;;;10504135;28;20258;-84
2023/09/12 14:26:43;;;;;;;10.98;6.90;;;31.70;65.50;;;;;;10518874;28;20207;-85
2023/09/12 14:32:05;;;;;;;11.63;8.55;;;31.40;66.90;;;;;;10516301;28;20218;-84
2023/09/12 14:43:40;;;;;;;13.00;8.70;;;30.80;67.80;;;;;;10507185;28;20255;-80
2023/09/12 14:49:05;;;;;;;33.42;12.23;;;30.90;66.80;;;;;;10499258;28;20274;-79
2023/09/12 14:54:26;;;;;;;10.40;7.90;;;30.80;65.80;;;;;;10540915;28;20234;-82
2023/09/12 14:59:47;;;;;;;12.45;8.38;;;30.70;66.90;;;;;;10516500;28;20405;-81
2023/09/12 15:05:09;;;;;;;9.27;7.93;;;30.60;68.30;;;;;;10534555;28;20244;-92
2023/09/12 15:10:29;;;;;;;8.45;7.18;;;30.40;71.00;;;;;;10484401;28;20423;-84
2023/09/12 15:15:50;;;;;;;8.55;7.28;;;30.20;66.70;;;;;;10491326;28;20234;-83
2023/09/12 15:21:11;;;;;;;11.45;8.27;;;30.20;68.10;;;;;;10512470;28;20191;-82
2023/09/12 15:26:32;;;;;;;11.40;7.30;;;30.10;68.50;;;;;;10501552;28;20464;-83
2023/09/12 15:31:54;;;;;;;10.73;6.28;;;30.00;67.70;;;;;;10510456;28;20226;-82
2023/09/12 15:37:15;;;;;;;10.40;8.07;;;29.90;70.20;;;;;;10503183;28;20191;-83
2023/09/12 15:42:41;;;;;;;7.03;6.22;;;29.70;69.10;;;;;;10517894;28;20235;-83
2023/09/12 15:48:02;;;;;;;15.30;10.35;;;29.50;69.40;;;;;;10520592;28;20198;-83
2023/09/12 15:53:24;;;;;;;12.00;8.75;;;29.50;71.10;;;;;;10513915;28;20233;-83
2023/09/12 15:58:49;;;;;;;11.13;8.30;;;29.40;72.20;;;;;;10519337;28;20187;-80
2023/09/12 16:04:10;;;;;;;10.35;7.53;;;29.30;78.90;;;;;;10528113;28;20409;-82
2023/09/12 16:09:31;;;;;;;10.70;8.15;;;29.10;70.50;;;;;;10518513;28;20225;-82
2023/09/12 17:02:02;;;;;;;25.27;15.77;;;27.00;67.50;;;;;;10557188;27;20560;-79
2023/09/12 17:07:23;;;;;;;22.25;12.60;;;26.70;90.10;;;;;;10579874;28;20380;-80
2023/09/12 17:12:44;;;;;;;16.60;11.48;;;26.60;90.60;;;;;;10534117;28;20244;-80
2023/09/12 17:18:06;;;;;;;19.83;11.50;;;26.40;89.70;;;;;;10553463;28;20222;-80
2023/09/12 17:23:27;;;;;;;14.75;11.98;;;26.20;91.20;;;;;;10560329;28;20190;-79
2023/09/12 17:28:48;;;;;;;27.83;15.10;;;26.10;91.70;;;;;;10552177;28;20186;-81
2023/09/12 17:34:09;;;;;;;18.20;15.15;;;25.90;91.70;;;;;;10546539;28;20274;-80
2023/09/12 17:39:30;;;;;;;22.98;16.00;;;25.80;92.30;;;;;;10524832;28;20305;-80
2023/09/12 17:51:51;;;;;;;28.55;16.63;;;25.30;94.90;;;;;;10516135;28;20270;-79
2023/09/12 17:57:12;;;;;;;20.30;16.00;;;25.20;95.90;;;;;;10544258;28;20226;-79
2023/09/12 18:02:33;;;;;;;21.55;15.05;;;25.00;96.10;;;;;;10516709;28;20292;-80
2023/09/12 18:07:55;;;;;;;33.30;20.80;;;24.80;98.40;;;;;;10565886;28;20520;-80
2023/09/12 18:13:16;;;;;;;32.40;18.85;;;24.70;99.10;;;;;;10514483;28;20461;-80
2023/09/12 18:18:38;;;;;;;23.75;16.27;;;24.60;99.40;;;;;;10491396;28;20422;-79
2023/09/12 18:23:59;;;;;;;25.90;17.40;;;24.40;99.90;;;;;;10502608;28;20203;-79
2023/09/12 18:29:22;;;;;;;24.70;14.90;;;24.30;99.90;;;;;;10482270;28;20587;-79
2023/09/12 18:34:43;;;;;;;23.85;15.63;;;;;;;;;;10498143;28;20199;-79
2023/09/12 18:40:05;;;;;;;22.02;13.80;;;24.10;92.80;;;;;;10510767;28;20306;-80
2023/09/12 18:45:27;;;;;;;18.77;13.45;;;24.10;99.90;;;;;;10496348;28;20498;-80
2023/09/12 18:50:48;;;;;;;21.02;12.93;;;24.20;99.90;;;;;;10506658;28;20214;-79
2023/09/12 18:56:09;;;;;;;22.42;13.63;;;24.10;99.90;;;;;;10544644;28;20202;-79
2023/09/12 19:01:30;;;;;;;16.67;12.75;;;24.00;99.90;;;;;;10491474;28;20265;-81
2023/09/12 19:06:51;;;;;;;16.48;13.00;;;24.00;99.90;;;;;;10543513;28;20199;-79
2023/09/12 19:12:12;;;;;;;22.35;13.98;;;23.90;99.90;;;;;;10496113;28;20202;-80
2023/09/12 19:17:33;;;;;;;20.80;13.60;;;23.80;99.90;;;;;;10538649;28;20206;-79
2023/09/12 19:22:55;;;;;;;18.00;13.52;;;23.70;99.90;;;;;;10562283;28;20572;-80
2023/09/12 19:28:17;;;;;;;24.30;14.98;;;23.70;1.00;;;;;;10553123;28;20204;-79
2023/09/12 19:33:39;;;;;;;24.40;16.73;;;;;;;;;;10553949;28;20261;-80
2023/09/12 19:39:01;;;;;;;21.92;14.82;;;23.20;99.90;;;;;;10545686;28;20544;-79
2023/09/12 19:44:22;;;;;;;21.90;15.27;;;23.20;1.00;;;;;;10519167;28;20191;-78
2023/09/12 19:49:44;;;;;;;25.02;15.88;;;23.00;99.90;;;;;;10521884;28;20493;-79
2023/09/12 19:55:06;;;;;;;23.05;16.48;;;22.90;99.90;;;;;;10511601;28;20490;-80
2023/09/12 20:00:28;;;;;;;26.27;15.00;;;22.90;99.90;;;;;;10503965;28;20474;-79
2023/09/12 20:05:49;;;;;;;23.60;13.32;;;22.90;99.90;;;;;;10502563;28;20203;-79
2023/09/12 20:11:10;;;;;;;18.35;12.30;;;22.90;99.90;;;;;;10518783;28;20191;-79
2023/09/12 20:16:31;;;;;;;19.27;11.07;;;22.90;99.90;;;;;;10500411;28;20218;-79
2023/09/12 20:21:52;;;;;;;14.05;10.63;;;22.90;99.90;;;;;;10501452;28;20289;-80
2023/09/12 20:27:14;;;;;;;16.80;10.10;;;22.80;99.90;;;;;;10493523;28;20407;-79
2023/09/12 20:32:35;;;;;;;12.90;10.00;;;22.90;99.90;;;;;;10477147;28;20506;-80
2023/09/12 20:38:07;;;;;;;14.55;9.40;;;22.70;99.90;;;;;;10497656;28;20460;-79
2023/09/12 20:43:29;;;;;;;15.60;9.50;;;22.60;99.90;;;;;;10519518;28;20187;-78
2023/09/12 20:48:50;;;;;;;12.65;9.93;;;22.50;99.90;;;;;;10463112;28;20208;-79
2023/09/12 20:54:12;;;;;;;14.02;10.07;;;22.60;99.90;;;;;;10476199;28;20395;-79
2023/09/12 20:59:33;;;;;;;14.50;10.98;;;22.60;99.90;;;;;;10462011;28;20243;-79
2023/09/12 21:04:54;;;;;;;13.13;10.18;;;22.40;1.00;;;;;;10490096;28;20283;-79
2023/09/12 21:10:16;;;;;;;14.77;11.68;;;22.30;99.90;;;;;;10472367;28;20211;-80
2023/09/12 21:15:37;;;;;;;17.48;11.88;;;22.20;99.90;;;;;;10493971;28;20231;-79
2023/09/12 21:20:58;;;;;;;17.48;12.65;;;;;;;;;;10492242;28;20231;-79
2023/09/12 21:26:20;;;;;;;15.57;11.48;;;;;;;;;;10500032;28;20231;-78
2023/09/12 21:31:41;;;;;;;12.45;10.50;;;;;;;;;;10461845;28;20206;-79
2023/09/12 21:37:03;;;;;;;13.40;10.30;;;;;;;;;;10475307;28;20222;-78
2023/09/12 21:42:24;;;;;;;13.73;9.60;;;;;;;;;;10461628;28;20537;-79
2023/09/12 21:47:46;;;;;;;15.07;9.45;;;;;;;;;;10486197;28;20223;-79
2023/09/12 21:53:07;;;;;;;17.10;9.20;;;;;;;;;;10483374;28;20246;-79
2023/09/12 21:58:29;;;;;;;11.60;8.77;;;;;;;;;;10482491;28;20243;-79
2023/09/12 22:03:51;;;;;;;12.50;8.95;;;;;;;;;;10483101;28;20188;-79
2023/09/12 22:09:12;;;;;;;11.63;8.43;;;;;;;;;;10494350;28;20213;-78
2023/09/12 22:14:34;;;;;;;11.75;8.80;;;;;;;;;;10523443;28;20187;-80
2023/09/12 22:19:55;;;;;;;19.60;8.85;;;;;;;;;;10520765;28;20219;-79
2023/09/12 22:25:17;;;;;;;12.70;8.80;;;;;;;;;;10516139;28;20491;-79
2023/09/12 22:30:38;;;;;;;10.35;8.65;;;21.70;99.90;;;;;;10481384;28;20456;-79
2023/09/12 22:35:59;;;;;;;11.85;7.90;;;;;;;;;;10519742;28;20196;-79
2023/09/12 22:41:26;;;;;;;14.27;9.18;;;;;;;;;;10481778;28;20219;-79
2023/09/12 22:46:48;;;;;;;13.07;9.45;;;21.20;93.50;;;;;;10495428;28;20199;-79
2023/09/12 22:52:11;;;;;;;15.45;9.95;;;21.00;99.90;;;;;;10522450;28;20245;-79
2023/09/12 22:57:32;;;;;;;12.52;9.63;;;20.90;99.90;;;;;;10501593;28;20199;-79
2023/09/12 23:02:53;;;;;;;12.88;9.45;;;20.90;99.90;;;;;;10465913;28;20441;-80
2023/09/12 23:08:15;;;;;;;13.48;9.80;;;;;;;;;;10479971;28;20204;-79
2023/09/12 23:13:36;;;;;;;13.38;9.98;;;20.70;1.00;;;;;;10506928;28;20265;-80
2023/09/12 23:18:57;;;;;;;13.38;9.43;;;20.70;1.00;;;;;;10471131;28;20302;-80
2023/09/12 23:24:18;;;;;;;13.98;10.23;;;20.60;1.00;;;;;;10489237;28;20198;-80
2023/09/12 23:29:40;;;;;;;12.93;9.88;;;20.60;99.90;;;;;;10479151;28;20495;-79
2023/09/12 23:35:01;;;;;;;10.35;8.88;;;20.50;99.90;;;;;;10483785;28;20203;-79
2023/09/12 23:40:23;;;;;;;15.05;8.38;;;20.40;1.00;;;;;;10479226;28;20484;-79
2023/09/12 23:45:44;;;;;;;13.23;10.15;;;20.40;99.90;;;;;;10464596;28;20564;-80
2023/09/12 23:51:05;;;;;;;16.40;10.48;;;20.30;1.00;;;;;;10482795;28;20195;-80
2023/09/12 23:56:26;;;;;;;11.95;9.23;;;20.30;1.00;;;;;;10468311;28;20255;-79
